Time;durP1;ratioP1;P1;durP2;ratioP2;P2;SDS_P1;SDS_P2;PMS_P1;PMS_P2;Temp;Humidity;BMP_temperature;BMP_pressure;BME280_temperature;BME280_humidity;BME280_pressure;Samples;Min_cycle;Max_cycle;Signal;HPM_P1;HPM_P2
2024/01/30 00:01:48;;;;;;;24.80;10.95;;;7.60;99.90;;;;;;5022423;28;20105;-80
2024/01/30 00:04:14;;;;;;;24.70;11.45;;;7.60;99.90;;;;;;5018781;28;20025;-80
2024/01/30 00:06:39;;;;;;;19.55;10.30;;;7.60;99.90;;;;;;5026402;28;20475;-81
2024/01/30 00:09:05;;;;;;;22.92;12.35;;;7.60;99.90;;;;;;5027362;28;20076;-80
2024/01/30 00:11:31;;;;;;;24.02;11.13;;;7.60;99.90;;;;;;5025602;28;20545;-81
2024/01/30 00:13:56;;;;;;;26.50;10.90;;;7.60;99.90;;;;;;5022081;28;20025;-81
2024/01/30 00:16:26;;;;;;;20.58;10.75;;;7.60;99.90;;;;;;5021724;28;20098;-79
2024/01/30 00:18:52;;;;;;;28.25;11.75;;;7.60;99.90;;;;;;5025946;28;20104;-81
2024/01/30 00:21:19;;;;;;;25.23;11.00;;;7.60;99.90;;;;;;5027128;28;20033;-81
2024/01/30 00:23:45;;;;;;;19.70;10.68;;;7.60;99.90;;;;;;5030423;28;20013;-81
2024/01/30 00:26:11;;;;;;;24.55;11.98;;;7.60;99.90;;;;;;5027024;28;20106;-80
2024/01/30 00:28:40;;;;;;;26.20;11.45;;;7.60;99.90;;;;;;5027200;28;20018;-81
2024/01/30 00:31:06;;;;;;;28.02;11.88;;;7.60;99.90;;;;;;5026007;28;20043;-80
2024/01/30 00:33:31;;;;;;;20.67;11.00;;;7.60;99.90;;;;;;5033790;28;20075;-81
2024/01/30 00:35:57;;;;;;;21.88;10.90;;;7.60;99.90;;;;;;5024279;28;20137;-79
2024/01/30 00:38:22;;;;;;;29.85;11.63;;;7.60;99.90;;;;;;5026112;28;20108;-80
2024/01/30 00:40:48;;;;;;;26.35;12.10;;;7.60;99.90;;;;;;5026172;28;20013;-80
2024/01/30 00:43:15;;;;;;;28.55;12.20;;;7.60;99.90;;;;;;5023347;28;20458;-82
2024/01/30 00:45:40;;;;;;;19.98;10.98;;;7.60;99.90;;;;;;5030626;28;20034;-81
2024/01/30 00:48:06;;;;;;;19.92;10.77;;;7.60;99.90;;;;;;5031501;28;20552;-80
2024/01/30 00:50:32;;;;;;;21.48;11.95;;;7.60;99.90;;;;;;5030196;28;20021;-80
2024/01/30 00:52:57;;;;;;;23.80;12.20;;;7.60;99.90;;;;;;5029554;28;20026;-80
2024/01/30 00:55:23;;;;;;;20.30;11.43;;;7.60;99.90;;;;;;5024172;28;20029;-82
2024/01/30 00:57:48;;;;;;;22.25;10.90;;;7.60;99.90;;;;;;5029381;28;20017;-80
2024/01/30 01:00:16;;;;;;;39.83;11.32;;;7.60;99.90;;;;;;5030209;28;20057;-80
2024/01/30 01:02:43;;;;;;;28.20;11.48;;;7.60;99.90;;;;;;5027639;28;20084;-81
2024/01/30 01:05:08;;;;;;;29.17;10.80;;;7.60;99.90;;;;;;5026202;28;20109;-81
2024/01/30 01:07:34;;;;;;;22.73;11.80;;;7.60;99.90;;;;;;5020802;28;20467;-81
2024/01/30 01:09:59;;;;;;;20.13;10.65;;;7.60;99.90;;;;;;5031694;28;20039;-80
2024/01/30 01:12:25;;;;;;;23.23;12.02;;;7.60;99.90;;;;;;5019983;28;20036;-80
2024/01/30 01:14:51;;;;;;;24.83;11.10;;;7.60;99.90;;;;;;5023474;28;20491;-82
2024/01/30 01:17:18;;;;;;;21.85;10.90;;;7.60;99.90;;;;;;5028041;28;20104;-80
2024/01/30 01:19:43;;;;;;;19.83;10.88;;;7.60;99.90;;;;;;5021814;28;20024;-80
2024/01/30 01:22:09;;;;;;;23.17;10.73;;;7.60;99.90;;;;;;5025902;28;20108;-80
2024/01/30 01:24:36;;;;;;;25.00;11.02;;;7.60;99.90;;;;;;5026712;28;20029;-81
2024/01/30 01:27:01;;;;;;;26.63;11.70;;;7.60;99.90;;;;;;5029474;28;20049;-81
2024/01/30 01:29:28;;;;;;;22.60;11.23;;;7.60;99.90;;;;;;5026732;28;20064;-80
2024/01/30 01:31:55;;;;;;;24.83;11.32;;;7.60;99.90;;;;;;5023453;28;20029;-79
2024/01/30 01:34:21;;;;;;;24.95;10.18;;;7.60;99.90;;;;;;5021032;28;20024;-81
2024/01/30 01:36:47;;;;;;;21.10;9.95;;;7.60;99.90;;;;;;5031019;28;20025;-80
2024/01/30 01:39:13;;;;;;;26.33;10.32;;;7.60;99.90;;;;;;5028794;28;20025;-80
2024/01/30 01:41:38;;;;;;;23.40;11.13;;;7.60;99.90;;;;;;5024562;28;20037;-80
2024/01/30 01:44:05;;;;;;;28.73;11.57;;;7.60;99.90;;;;;;5025140;28;20506;-81
2024/01/30 01:46:33;;;;;;;19.83;9.88;;;7.60;99.90;;;;;;5020569;28;20052;-80
2024/01/30 01:49:00;;;;;;;22.50;10.80;;;7.60;99.90;;;;;;5023565;28;20078;-80
2024/01/30 01:51:29;;;;;;;20.08;10.75;;;7.60;99.90;;;;;;5028971;28;20021;-80
2024/01/30 01:53:56;;;;;;;21.38;10.93;;;7.60;99.90;;;;;;5028739;28;20049;-80
2024/01/30 01:56:23;;;;;;;28.80;11.85;;;7.60;99.90;;;;;;5027087;28;20022;-80
2024/01/30 01:58:51;;;;;;;20.85;11.60;;;7.60;99.90;;;;;;5025279;28;20551;-80
2024/01/30 02:01:18;;;;;;;22.02;11.32;;;7.60;99.90;;;;;;5029708;28;20384;-81
2024/01/30 02:03:45;;;;;;;27.23;9.95;;;7.60;99.90;;;;;;5029350;28;20018;-80
2024/01/30 02:06:11;;;;;;;21.85;10.20;;;7.60;99.90;;;;;;5027671;28;20403;-80
2024/01/30 02:08:37;;;;;;;17.98;9.85;;;7.60;99.90;;;;;;5027483;28;20030;-81
2024/01/30 02:11:03;;;;;;;23.25;10.02;;;7.60;99.90;;;;;;5021736;28;20025;-81
2024/01/30 02:13:29;;;;;;;23.40;10.48;;;7.60;99.90;;;;;;5023088;28;20023;-80
2024/01/30 02:15:54;;;;;;;15.90;9.15;;;7.60;99.90;;;;;;5031755;28;20091;-81
2024/01/30 02:18:23;;;;;;;21.77;10.48;;;7.60;99.90;;;;;;5034183;28;20029;-80
2024/01/30 02:20:48;;;;;;;18.85;9.52;;;7.60;99.90;;;;;;5033638;28;20049;-80
2024/01/30 02:23:15;;;;;;;26.23;9.65;;;7.60;99.90;;;;;;5030936;28;20061;-81
2024/01/30 02:25:44;;;;;;;26.70;10.23;;;7.60;99.90;;;;;;5028508;28;20026;-80
2024/01/30 02:28:13;;;;;;;19.38;9.35;;;7.60;99.90;;;;;;5035057;28;20030;-79
2024/01/30 02:30:39;;;;;;;18.98;9.70;;;7.60;99.90;;;;;;5026913;28;20049;-79
2024/01/30 02:33:05;;;;;;;19.98;9.50;;;7.60;99.90;;;;;;5038153;28;20106;-79
2024/01/30 02:35:31;;;;;;;16.85;8.38;;;7.60;99.90;;;;;;5025096;28;20483;-80
2024/01/30 02:37:56;;;;;;;19.10;9.43;;;7.60;99.90;;;;;;5029706;28;20021;-80
2024/01/30 02:40:22;;;;;;;19.73;9.80;;;7.60;99.90;;;;;;5035777;28;20120;-80
2024/01/30 02:42:47;;;;;;;18.83;8.20;;;7.60;99.90;;;;;;5034461;28;20028;-80
2024/01/30 02:45:13;;;;;;;20.27;9.90;;;7.60;99.90;;;;;;5035287;28;20103;-80
2024/01/30 02:47:39;;;;;;;17.48;8.48;;;7.60;99.90;;;;;;5026557;28;20021;-79
2024/01/30 02:50:05;;;;;;;16.10;9.38;;;7.60;99.90;;;;;;5029469;28;20025;-80
2024/01/30 02:52:31;;;;;;;19.65;9.40;;;7.60;99.90;;;;;;5034092;28;20040;-79
2024/01/30 02:54:56;;;;;;;18.75;9.40;;;7.60;99.90;;;;;;5036287;28;20505;-80
2024/01/30 02:57:22;;;;;;;19.38;8.43;;;7.60;99.90;;;;;;5023288;28;20108;-80
2024/01/30 02:59:47;;;;;;;18.33;9.10;;;7.60;99.90;;;;;;5033239;28;20068;-80
2024/01/30 03:02:13;;;;;;;15.48;9.27;;;7.60;99.90;;;;;;5030961;28;20112;-80
2024/01/30 03:04:41;;;;;;;17.40;9.52;;;7.60;99.90;;;;;;5030752;28;20044;-80
2024/01/30 03:07:06;;;;;;;15.57;8.85;;;7.60;99.90;;;;;;5036985;28;20551;-80
2024/01/30 03:09:32;;;;;;;15.32;8.57;;;7.60;99.90;;;;;;5021899;28;20086;-80
2024/01/30 03:11:57;;;;;;;21.60;9.13;;;7.50;99.90;;;;;;5024636;28;20507;-79
2024/01/30 03:14:23;;;;;;;17.67;9.52;;;7.50;99.90;;;;;;5028571;28;20499;-79
2024/01/30 03:16:48;;;;;;;22.60;9.75;;;7.60;99.90;;;;;;5034314;28;20063;-80
2024/01/30 03:19:14;;;;;;;19.90;9.40;;;7.60;99.90;;;;;;5031906;28;20076;-80
2024/01/30 03:21:40;;;;;;;14.73;8.38;;;7.50;99.90;;;;;;5027121;28;20068;-79
2024/01/30 03:24:05;;;;;;;21.60;9.77;;;7.50;99.90;;;;;;5030080;28;20024;-80
2024/01/30 03:26:31;;;;;;;21.77;9.63;;;7.50;99.90;;;;;;5028783;28;20033;-81
2024/01/30 03:28:56;;;;;;;18.67;8.38;;;7.60;99.90;;;;;;5032306;28;20029;-82
2024/01/30 03:31:22;;;;;;;18.35;8.98;;;7.50;99.90;;;;;;5036156;28;20059;-80
2024/01/30 03:33:47;;;;;;;19.88;8.52;;;7.50;99.90;;;;;;5033256;28;20032;-80
2024/01/30 03:36:15;;;;;;;14.75;8.02;;;7.50;99.90;;;;;;5019872;28;20103;-81
2024/01/30 03:38:40;;;;;;;17.80;9.02;;;7.50;99.90;;;;;;5019942;28;20568;-79
2024/01/30 03:41:09;;;;;;;19.33;9.32;;;7.60;99.90;;;;;;5030565;28;20029;-80
2024/01/30 03:43:34;;;;;;;17.15;9.07;;;7.60;99.90;;;;;;5031862;28;20029;-80
2024/01/30 03:46:01;;;;;;;18.27;9.10;;;7.50;99.90;;;;;;5024717;28;20113;-80
2024/01/30 03:48:27;;;;;;;14.57;8.15;;;7.50;99.90;;;;;;5023253;28;20029;-80
2024/01/30 03:50:52;;;;;;;15.45;7.95;;;7.60;99.90;;;;;;5031796;28;20032;-80
2024/01/30 03:53:18;;;;;;;16.35;8.98;;;7.50;99.90;;;;;;5031344;28;20116;-80
2024/01/30 03:55:43;;;;;;;15.85;8.48;;;7.50;99.90;;;;;;5028989;28;20064;-80
2024/01/30 03:58:09;;;;;;;19.48;8.88;;;7.50;99.90;;;;;;5032483;28;20048;-80
2024/01/30 04:00:35;;;;;;;15.57;8.65;;;7.50;99.90;;;;;;5021707;28;20025;-80
2024/01/30 04:03:00;;;;;;;19.88;9.38;;;7.60;99.90;;;;;;5030122;28;20043;-80
2024/01/30 04:05:26;;;;;;;17.33;9.05;;;7.50;99.90;;;;;;5033375;28;20538;-80
2024/01/30 04:07:51;;;;;;;16.67;8.35;;;7.50;99.90;;;;;;5035313;28;20120;-82
2024/01/30 04:10:17;;;;;;;17.13;8.30;;;7.50;99.90;;;;;;5038746;28;20511;-80
2024/01/30 04:12:42;;;;;;;19.08;8.68;;;7.50;99.90;;;;;;5029295;28;20413;-79
2024/01/30 04:15:08;;;;;;;17.95;8.35;;;7.50;99.90;;;;;;5025087;28;20033;-81
2024/01/30 04:17:34;;;;;;;20.42;9.10;;;7.50;99.90;;;;;;5028601;28;20070;-80
2024/01/30 04:20:00;;;;;;;16.92;8.77;;;7.50;99.90;;;;;;5032315;28;20100;-79
2024/01/30 04:22:25;;;;;;;17.95;8.80;;;7.50;99.90;;;;;;5038272;28;20470;-79
2024/01/30 04:24:51;;;;;;;17.73;8.90;;;7.50;99.90;;;;;;5028466;28;20026;-80
2024/01/30 04:27:16;;;;;;;15.88;9.27;;;7.50;99.90;;;;;;5025379;28;20082;-80
2024/01/30 04:29:42;;;;;;;14.93;8.73;;;7.50;99.90;;;;;;5028805;28;20025;-79
2024/01/30 04:32:09;;;;;;;17.15;8.82;;;7.50;99.90;;;;;;5033382;28;20022;-80
2024/01/30 04:34:35;;;;;;;21.15;9.20;;;7.50;99.90;;;;;;5037162;28;20029;-80
2024/01/30 04:37:01;;;;;;;16.05;8.02;;;7.50;99.90;;;;;;5026105;28;20030;-81
2024/01/30 04:39:27;;;;;;;15.55;9.05;;;7.50;99.90;;;;;;5028688;28;20028;-81
2024/01/30 04:41:52;;;;;;;16.65;8.75;;;7.50;99.90;;;;;;5032081;28;20045;-81
2024/01/30 04:44:18;;;;;;;18.73;8.50;;;7.50;99.90;;;;;;5032789;28;20013;-81
2024/01/30 04:46:43;;;;;;;15.98;9.05;;;7.50;99.90;;;;;;5025637;28;20388;-81
2024/01/30 04:49:09;;;;;;;19.85;8.38;;;7.50;99.90;;;;;;5024189;28;20026;-80
2024/01/30 04:51:34;;;;;;;15.95;8.25;;;7.50;99.90;;;;;;5024224;28;20037;-80
2024/01/30 04:54:00;;;;;;;18.05;8.30;;;7.50;99.90;;;;;;5032594;28;20423;-80
2024/01/30 04:56:25;;;;;;;18.92;7.80;;;7.50;99.90;;;;;;5033200;28;20499;-81
2024/01/30 04:58:51;;;;;;;15.55;8.50;;;7.50;99.90;;;;;;5035516;28;20025;-80
2024/01/30 05:01:17;;;;;;;17.67;9.30;;;7.50;99.90;;;;;;5033465;28;20109;-80
2024/01/30 05:03:43;;;;;;;19.17;8.13;;;7.50;99.90;;;;;;5022704;28;20254;-80
2024/01/30 05:06:09;;;;;;;19.10;9.00;;;7.50;99.90;;;;;;5028517;28;20034;-80
2024/01/30 05:08:36;;;;;;;18.08;8.75;;;7.50;99.90;;;;;;5034336;28;20036;-80
2024/01/30 05:11:03;;;;;;;19.38;9.10;;;7.50;99.90;;;;;;5037351;28;20032;-80
2024/01/30 05:13:30;;;;;;;18.95;9.23;;;7.50;99.90;;;;;;5033059;28;20064;-80
2024/01/30 05:15:56;;;;;;;17.88;8.38;;;7.50;99.90;;;;;;5027661;28;20052;-80
2024/01/30 05:18:21;;;;;;;15.10;7.57;;;7.50;99.90;;;;;;5023925;28;20488;-80
2024/01/30 05:20:47;;;;;;;17.73;8.88;;;7.50;99.90;;;;;;5033266;28;20118;-80
2024/01/30 05:23:12;;;;;;;17.02;8.18;;;7.50;99.90;;;;;;5024650;28;20110;-80
2024/01/30 05:25:38;;;;;;;19.98;8.43;;;7.50;99.90;;;;;;5025295;28;20104;-80
2024/01/30 05:28:04;;;;;;;16.33;9.73;;;7.50;99.90;;;;;;5027121;28;20033;-80
2024/01/30 05:30:29;;;;;;;25.02;9.25;;;7.50;99.90;;;;;;5020869;28;20428;-80
2024/01/30 05:32:55;;;;;;;18.55;8.70;;;7.50;99.90;;;;;;5024487;28;20038;-80
2024/01/30 05:35:21;;;;;;;18.15;8.63;;;7.50;99.90;;;;;;5017113;28;20033;-80
2024/01/30 05:37:48;;;;;;;16.40;8.38;;;7.50;99.90;;;;;;5031457;28;20032;-82
2024/01/30 05:40:14;;;;;;;19.13;9.40;;;7.50;99.90;;;;;;5032412;28;20022;-80
2024/01/30 05:42:39;;;;;;;20.40;9.40;;;7.50;99.90;;;;;;5036529;28;20567;-80
2024/01/30 05:45:05;;;;;;;18.15;9.10;;;7.50;99.90;;;;;;5040151;28;20029;-80
2024/01/30 05:47:31;;;;;;;16.80;8.38;;;7.50;99.90;;;;;;5037797;28;20491;-80
2024/01/30 05:49:56;;;;;;;23.05;8.60;;;7.50;99.90;;;;;;5044074;28;20034;-80
2024/01/30 05:52:22;;;;;;;18.48;8.60;;;7.50;99.90;;;;;;5032824;28;20499;-80
2024/01/30 05:54:48;;;;;;;15.55;8.30;;;7.40;99.90;;;;;;5032948;28;20768;-80
2024/01/30 05:57:13;;;;;;;18.67;8.60;;;7.40;99.90;;;;;;5037104;28;20017;-80
2024/01/30 05:59:39;;;;;;;16.38;9.07;;;7.50;99.90;;;;;;5036916;28;20025;-80
2024/01/30 06:02:04;;;;;;;18.13;8.80;;;7.50;99.90;;;;;;5037362;28;20061;-80
2024/01/30 06:04:30;;;;;;;23.23;9.02;;;7.50;99.90;;;;;;5030986;28;20076;-80
2024/01/30 06:06:55;;;;;;;16.65;8.75;;;7.40;99.90;;;;;;5030116;28;20025;-80
2024/01/30 06:09:21;;;;;;;13.30;8.05;;;7.50;99.90;;;;;;5034505;28;20032;-81
2024/01/30 06:11:46;;;;;;;17.27;8.27;;;7.40;99.90;;;;;;5037193;28;20023;-79
2024/01/30 06:14:12;;;;;;;17.52;8.45;;;7.50;99.90;;;;;;5034065;28;20022;-80
2024/01/30 06:16:37;;;;;;;17.20;8.73;;;7.40;99.90;;;;;;5035729;28;20025;-80
2024/01/30 06:19:03;;;;;;;17.13;8.63;;;7.40;99.90;;;;;;5036622;28;20017;-80
2024/01/30 06:21:29;;;;;;;17.20;8.45;;;7.50;99.90;;;;;;5035914;28;20024;-79
2024/01/30 06:23:54;;;;;;;18.17;8.02;;;7.40;99.90;;;;;;5037114;28;20108;-80
2024/01/30 06:26:20;;;;;;;18.92;8.55;;;7.50;99.90;;;;;;5038675;28;20117;-80
2024/01/30 06:28:45;;;;;;;18.50;8.88;;;7.40;99.90;;;;;;5032268;28;20041;-81
2024/01/30 06:31:11;;;;;;;18.38;9.05;;;7.40;99.90;;;;;;5031575;28;20048;-81
2024/01/30 06:33:36;;;;;;;16.63;8.68;;;7.40;99.90;;;;;;5034809;28;20423;-80
2024/01/30 06:36:02;;;;;;;19.27;9.13;;;7.40;99.90;;;;;;5036133;28;20108;-81
2024/01/30 06:38:28;;;;;;;17.63;8.85;;;7.50;99.90;;;;;;5036582;28;20032;-80
2024/01/30 06:40:53;;;;;;;19.65;9.55;;;7.40;99.90;;;;;;5031891;28;20021;-80
2024/01/30 06:43:19;;;;;;;18.05;8.50;;;7.40;99.90;;;;;;5031193;28;20025;-81
2024/01/30 06:45:44;;;;;;;18.60;9.35;;;7.50;99.90;;;;;;5033998;28;20052;-80
2024/01/30 06:48:10;;;;;;;17.95;8.45;;;7.50;99.90;;;;;;5035512;28;20033;-80
2024/01/30 06:50:35;;;;;;;21.92;8.65;;;7.50;99.90;;;;;;5038336;28;20486;-81
2024/01/30 06:53:01;;;;;;;18.00;8.48;;;7.40;99.90;;;;;;5033779;28;20022;-80
2024/01/30 06:55:26;;;;;;;17.63;8.25;;;7.40;99.90;;;;;;5030480;28;20080;-79
2024/01/30 06:57:52;;;;;;;21.17;9.00;;;7.40;99.90;;;;;;5033090;28;20025;-79
2024/01/30 07:00:19;;;;;;;17.45;8.63;;;7.50;99.90;;;;;;5035417;28;20029;-79
2024/01/30 07:02:45;;;;;;;18.27;9.43;;;7.50;99.90;;;;;;5038977;28;20067;-80
2024/01/30 07:05:10;;;;;;;16.42;9.20;;;7.50;99.90;;;;;;5030431;28;20037;-79
2024/01/30 07:07:36;;;;;;;18.38;9.35;;;7.50;99.90;;;;;;5032543;28;20133;-82
2024/01/30 07:10:01;;;;;;;17.92;8.98;;;7.40;99.90;;;;;;5032859;28;20388;-80
2024/01/30 07:12:27;;;;;;;17.67;9.05;;;7.40;99.90;;;;;;5031897;28;20392;-78
2024/01/30 07:14:53;;;;;;;17.05;9.70;;;7.50;99.90;;;;;;5035779;28;20064;-79
2024/01/30 07:17:18;;;;;;;21.65;9.93;;;7.50;99.90;;;;;;5031967;28;20018;-78
2024/01/30 07:19:44;;;;;;;22.50;9.52;;;7.50;99.90;;;;;;5023691;28;20557;-79
2024/01/30 07:22:09;;;;;;;22.13;10.52;;;7.50;99.90;;;;;;5025411;28;20461;-78
2024/01/30 07:24:35;;;;;;;20.33;10.05;;;7.50;99.90;;;;;;5021585;28;20017;-79
2024/01/30 07:27:01;;;;;;;25.13;11.23;;;7.50;99.90;;;;;;5024181;28;20052;-79
2024/01/30 07:29:26;;;;;;;22.98;11.18;;;7.50;99.90;;;;;;5037260;28;20040;-79
2024/01/30 07:31:52;;;;;;;19.02;9.70;;;7.50;99.90;;;;;;5028812;28;20031;-80
2024/01/30 07:34:17;;;;;;;16.95;9.98;;;7.50;99.90;;;;;;5032176;28;20036;-79
2024/01/30 07:36:43;;;;;;;23.10;10.45;;;7.50;99.90;;;;;;5035590;28;20494;-79
2024/01/30 07:39:10;;;;;;;21.05;10.57;;;7.50;99.90;;;;;;5036139;28;20019;-80
2024/01/30 07:41:35;;;;;;;24.35;10.95;;;7.50;99.90;;;;;;5028580;28;20020;-79
2024/01/30 07:44:01;;;;;;;23.92;10.18;;;7.50;99.90;;;;;;5036759;28;20049;-79
2024/01/30 07:46:26;;;;;;;21.25;10.23;;;7.50;99.90;;;;;;5031674;28;20411;-79
2024/01/30 07:48:52;;;;;;;21.58;9.68;;;7.50;99.90;;;;;;5034270;28;20025;-80
2024/01/30 07:51:18;;;;;;;20.73;9.88;;;7.50;99.90;;;;;;5023968;28;20026;-79
2024/01/30 07:53:44;;;;;;;20.70;10.57;;;7.60;99.90;;;;;;5033554;28;20557;-79
2024/01/30 07:56:10;;;;;;;22.92;10.90;;;7.60;99.90;;;;;;5026952;28;20021;-79
2024/01/30 07:58:36;;;;;;;18.45;9.05;;;7.60;99.90;;;;;;5031085;28;20439;-78
2024/01/30 08:01:02;;;;;;;28.20;10.73;;;7.60;99.90;;;;;;5026572;28;20033;-80
2024/01/30 08:03:28;;;;;;;23.40;10.02;;;7.60;99.90;;;;;;5036106;28;20028;-79
2024/01/30 08:05:53;;;;;;;20.83;9.80;;;7.60;99.90;;;;;;5037419;28;20056;-80
2024/01/30 08:08:19;;;;;;;19.85;9.30;;;7.70;99.90;;;;;;5028869;28;20104;-80
2024/01/30 08:10:45;;;;;;;18.02;9.38;;;7.70;99.90;;;;;;5032006;28;20064;-80
2024/01/30 08:13:10;;;;;;;14.85;8.85;;;7.70;99.90;;;;;;5032965;28;20018;-80
2024/01/30 08:15:36;;;;;;;21.15;10.63;;;7.70;99.90;;;;;;5036369;28;20021;-81
2024/01/30 08:18:01;;;;;;;22.52;9.82;;;7.80;99.90;;;;;;5031163;28;20025;-79
2024/01/30 08:20:27;;;;;;;17.85;9.02;;;7.80;99.90;;;;;;5029538;28;20022;-78
2024/01/30 08:22:52;;;;;;;22.80;10.35;;;7.80;99.90;;;;;;5029858;28;20080;-79
2024/01/30 08:25:18;;;;;;;23.00;9.88;;;7.80;99.90;;;;;;5035512;28;20398;-78
2024/01/30 08:27:44;;;;;;;18.90;8.90;;;7.80;99.90;;;;;;5037107;28;20021;-79
2024/01/30 08:30:10;;;;;;;14.18;7.80;;;7.80;99.90;;;;;;5034111;28;20017;-79
2024/01/30 08:32:36;;;;;;;15.85;8.98;;;7.80;99.90;;;;;;5039799;28;20406;-79
2024/01/30 08:35:04;;;;;;;20.85;9.02;;;7.80;99.90;;;;;;5030079;28;20032;-80
2024/01/30 08:37:30;;;;;;;15.90;9.30;;;7.80;99.90;;;;;;5030134;28;20472;-78
2024/01/30 08:39:55;;;;;;;18.35;8.70;;;7.80;99.90;;;;;;5035308;28;20036;-79
2024/01/30 08:42:25;;;;;;;25.52;10.02;;;7.80;99.90;;;;;;5039054;28;20013;-79
2024/01/30 08:44:52;;;;;;;22.67;11.15;;;7.80;99.90;;;;;;5029879;28;20024;-79
2024/01/30 08:47:18;;;;;;;20.17;10.65;;;7.80;99.90;;;;;;5029268;28;20022;-79
2024/01/30 08:49:44;;;;;;;22.00;10.20;;;7.80;99.90;;;;;;5035243;28;20391;-79
2024/01/30 08:52:11;;;;;;;22.65;10.10;;;7.90;99.90;;;;;;5036776;28;20068;-80
2024/01/30 08:54:36;;;;;;;20.05;10.57;;;7.90;99.90;;;;;;5042154;28;20029;-78
2024/01/30 08:57:02;;;;;;;25.08;10.77;;;7.90;99.90;;;;;;5032529;28;20032;-81
2024/01/30 08:59:27;;;;;;;24.98;10.40;;;8.00;99.90;;;;;;5032016;28;20057;-80
2024/01/30 09:01:55;;;;;;;20.35;10.13;;;8.00;99.90;;;;;;5035321;28;20044;-79
2024/01/30 09:04:21;;;;;;;22.27;10.85;;;8.00;99.90;;;;;;5042933;28;20023;-82
2024/01/30 09:06:47;;;;;;;24.35;11.98;;;8.10;99.90;;;;;;5038354;28;20021;-79
2024/01/30 09:09:12;;;;;;;25.83;10.85;;;8.10;99.90;;;;;;5032150;28;20026;-80
2024/01/30 09:11:38;;;;;;;28.20;11.68;;;8.10;99.90;;;;;;5034486;28;20063;-79
2024/01/30 09:14:04;;;;;;;22.83;12.07;;;8.10;99.90;;;;;;5033032;28;20030;-80
2024/01/30 09:16:29;;;;;;;27.50;12.88;;;8.10;99.90;;;;;;5040334;28;20079;-79
2024/01/30 09:18:55;;;;;;;28.63;12.43;;;8.10;99.90;;;;;;5034875;28;20495;-81
2024/01/30 09:21:20;;;;;;;30.02;11.40;;;8.10;99.90;;;;;;5032022;28;20036;-79
2024/01/30 09:23:46;;;;;;;29.58;12.73;;;8.10;99.90;;;;;;5032530;28;20021;-78
2024/01/30 09:26:12;;;;;;;25.23;11.45;;;8.00;99.90;;;;;;5038613;28;20040;-79
2024/01/30 09:28:38;;;;;;;25.20;11.57;;;8.10;99.90;;;;;;5035371;28;20029;-80
2024/01/30 09:31:04;;;;;;;25.63;11.95;;;8.10;99.90;;;;;;5037336;28;20022;-80
2024/01/30 09:33:29;;;;;;;27.88;12.40;;;8.10;99.90;;;;;;5030922;28;20120;-79
2024/01/30 09:35:55;;;;;;;24.00;11.73;;;8.10;99.90;;;;;;5032366;28;20098;-79
2024/01/30 09:38:21;;;;;;;26.80;12.13;;;8.00;99.90;;;;;;5038646;28;20088;-79
2024/01/30 09:40:53;;;;;;;26.58;11.70;;;8.00;99.90;;;;;;5036839;28;20017;-80
2024/01/30 09:43:22;;;;;;;21.73;11.43;;;8.00;99.90;;;;;;5037242;28;20045;-80
2024/01/30 09:45:49;;;;;;;23.43;11.67;;;8.10;99.90;;;;;;5028628;28;20027;-80
2024/01/30 09:48:15;;;;;;;21.77;11.30;;;8.10;99.90;;;;;;5038327;28;20018;-79
2024/01/30 09:50:41;;;;;;;23.58;12.00;;;8.10;99.90;;;;;;5034051;28;20029;-79
2024/01/30 09:53:08;;;;;;;25.50;11.88;;;8.10;99.90;;;;;;5039079;28;20028;-79
2024/01/30 09:55:36;;;;;;;27.92;12.07;;;8.10;99.90;;;;;;5035996;28;20064;-79
2024/01/30 09:58:01;;;;;;;26.45;12.40;;;8.20;99.90;;;;;;5043810;28;20109;-80
2024/01/30 10:00:27;;;;;;;22.73;11.60;;;8.20;99.90;;;;;;5030732;28;20100;-79
2024/01/30 10:02:53;;;;;;;22.58;12.20;;;8.10;99.90;;;;;;5037133;28;20021;-79
2024/01/30 10:05:20;;;;;;;29.95;12.68;;;8.10;99.90;;;;;;5034573;28;20026;-80
2024/01/30 10:07:56;;;;;;;24.42;12.55;;;8.20;99.90;;;;;;5038462;28;20653;-79
2024/01/30 10:10:23;;;;;;;25.65;11.80;;;8.20;99.90;;;;;;5034931;28;20082;-80
2024/01/30 10:12:49;;;;;;;22.65;11.57;;;8.10;99.90;;;;;;5035776;28;20021;-79
2024/01/30 10:15:15;;;;;;;25.60;12.18;;;8.20;99.90;;;;;;5037887;28;20029;-81
2024/01/30 10:17:40;;;;;;;24.63;12.98;;;8.20;99.90;;;;;;5034495;28;20010;-80
2024/01/30 10:20:07;;;;;;;24.55;11.88;;;8.20;99.90;;;;;;5033893;28;20028;-79
2024/01/30 10:22:33;;;;;;;24.17;11.95;;;8.20;99.90;;;;;;5028911;28;20022;-80
2024/01/30 10:25:00;;;;;;;20.00;10.88;;;8.20;99.90;;;;;;5032798;28;20029;-78
2024/01/30 10:27:29;;;;;;;28.73;13.07;;;8.30;99.90;;;;;;5028531;28;20104;-78
2024/01/30 10:29:55;;;;;;;24.75;12.95;;;8.30;99.90;;;;;;5035564;28;20025;-80
2024/01/30 10:32:21;;;;;;;29.77;14.30;;;8.30;99.90;;;;;;5040866;28;20039;-79
2024/01/30 10:34:47;;;;;;;27.10;12.90;;;8.20;99.90;;;;;;5034039;28;20022;-78
2024/01/30 10:37:15;;;;;;;33.65;14.52;;;8.20;99.90;;;;;;5030368;28;20087;-80
2024/01/30 10:39:41;;;;;;;31.42;13.18;;;8.10;99.90;;;;;;5031829;28;20022;-80
2024/01/30 10:42:12;;;;;;;24.58;12.00;;;8.10;99.90;;;;;;5032807;28;20052;-83
2024/01/30 10:44:51;;;;;;;;;;;8.10;99.90;;;;;;5036189;28;20144;-81
2024/01/30 10:47:25;;;;;;;26.40;11.75;;;8.10;99.90;;;;;;5035901;28;19905;-81
2024/01/30 10:49:52;;;;;;;21.80;11.02;;;8.00;99.90;;;;;;5027864;28;20030;-79
2024/01/30 10:52:18;;;;;;;27.27;12.00;;;8.00;99.90;;;;;;5034930;28;20017;-80
2024/01/30 10:54:44;;;;;;;24.55;12.05;;;8.00;99.90;;;;;;5032668;28;20104;-79
2024/01/30 10:57:12;;;;;;;27.40;12.00;;;8.10;99.90;;;;;;5028730;28;20022;-80
2024/01/30 10:59:38;;;;;;;27.27;12.93;;;8.10;99.90;;;;;;5031487;28;20021;-80
2024/01/30 11:02:05;;;;;;;28.23;12.93;;;8.10;99.90;;;;;;5030768;28;20107;-79
2024/01/30 11:04:41;;;;;;;27.15;13.05;;;8.10;99.90;;;;;;5030210;28;20022;-80
2024/01/30 11:07:17;;;;;;;28.35;12.52;;;8.10;99.90;;;;;;5031208;28;20487;-80
2024/01/30 11:09:58;;;;;;;22.92;11.75;;;8.10;99.90;;;;;;5036287;28;20033;-80
2024/01/30 11:12:25;;;;;;;25.52;12.48;;;8.10;99.90;;;;;;5028667;28;20036;-80
2024/01/30 11:15:05;;;;;;;29.52;11.98;;;8.10;99.90;;;;;;5028409;28;20029;-80
2024/01/30 11:18:00;;;;;;;30.88;13.73;;;8.10;99.90;;;;;;5029353;28;20032;-81
2024/01/30 11:20:32;;;;;;;29.60;13.05;;;8.20;99.90;;;;;;4996621;28;20030;-81
2024/01/30 11:22:59;;;;;;;25.30;12.30;;;8.20;99.90;;;;;;4995071;28;20500;-79
2024/01/30 11:25:25;;;;;;;24.73;12.55;;;8.30;99.90;;;;;;4973471;28;20121;-80
2024/01/30 11:27:55;;;;;;;25.08;11.43;;;8.30;99.90;;;;;;4985533;28;20025;-79
2024/01/30 11:30:26;;;;;;;26.25;12.50;;;8.20;99.90;;;;;;4997347;28;20042;-80
2024/01/30 11:33:27;;;;;;;6.40;4.40;;;8.20;99.90;;;;;;4997092;28;20528;-81
2024/01/30 11:35:53;;;;;;;22.58;10.77;;;9.90;99.90;;;;;;4935451;29;20035;-80
2024/01/30 11:38:19;;;;;;;20.17;11.02;;;9.30;99.90;;;;;;4939318;29;20059;-82
2024/01/30 11:40:45;;;;;;;27.63;11.77;;;8.70;99.90;;;;;;4937996;29;20023;-82
2024/01/30 11:43:11;;;;;;;30.00;13.00;;;8.40;99.90;;;;;;4937605;29;20554;-81
2024/01/30 11:45:37;;;;;;;30.42;13.35;;;8.30;99.90;;;;;;4939474;29;20023;-81
2024/01/30 11:48:04;;;;;;;27.73;12.80;;;8.20;99.90;;;;;;4934115;29;20027;-81
2024/01/30 11:50:39;;;;;;;26.58;13.57;;;8.20;99.90;;;;;;4930561;29;20088;-80
2024/01/30 11:53:05;;;;;;;24.45;11.82;;;8.20;99.90;;;;;;4940316;29;20043;-81
2024/01/30 11:55:31;;;;;;;24.10;12.40;;;8.20;99.90;;;;;;4938195;29;20671;-80
2024/01/30 11:57:58;;;;;;;25.25;12.65;;;8.20;99.90;;;;;;4971066;28;20478;-80
2024/01/30 12:00:24;;;;;;;26.77;13.77;;;8.10;99.90;;;;;;4963194;28;20038;-82
2024/01/30 12:02:57;;;;;;;30.17;13.13;;;8.10;99.90;;;;;;4963330;28;20755;-80
2024/01/30 12:05:23;;;;;;;25.88;12.68;;;8.10;99.90;;;;;;4960249;28;20106;-80
2024/01/30 12:07:49;;;;;;;27.08;12.63;;;8.10;99.90;;;;;;4956423;28;20026;-81
2024/01/30 12:10:15;;;;;;;27.15;12.98;;;8.10;99.90;;;;;;4963104;28;20262;-80
2024/01/30 12:12:44;;;;;;;27.73;12.00;;;8.10;99.90;;;;;;4990393;28;20577;-80
2024/01/30 12:15:10;;;;;;;29.17;12.82;;;8.10;99.90;;;;;;5021237;28;20203;-80
2024/01/30 12:17:36;;;;;;;27.73;12.65;;;8.10;99.90;;;;;;5037214;28;20037;-81
2024/01/30 12:20:13;;;;;;;23.42;11.93;;;8.10;99.90;;;;;;5031599;28;20017;-81
2024/01/30 12:22:41;;;;;;;24.52;11.93;;;8.10;99.90;;;;;;5038138;28;20110;-81
2024/01/30 12:25:11;;;;;;;25.10;12.30;;;8.10;99.90;;;;;;5039185;28;20483;-79
2024/01/30 12:27:37;;;;;;;21.55;11.60;;;8.10;99.90;;;;;;5028771;28;20084;-81
2024/01/30 12:30:10;;;;;;;27.73;11.77;;;8.10;99.90;;;;;;5036461;28;20068;-82
2024/01/30 12:32:40;;;;;;;26.60;12.73;;;8.10;99.90;;;;;;5036947;28;20029;-80
2024/01/30 12:35:14;;;;;;;24.60;11.70;;;8.20;99.90;;;;;;5033081;28;20074;-79
2024/01/30 12:37:40;;;;;;;30.25;12.02;;;8.10;99.90;;;;;;5030232;28;20105;-81
2024/01/30 12:40:07;;;;;;;27.88;11.73;;;8.10;99.90;;;;;;5026326;28;20116;-80